• Join FlightAware (Why Join?)
  • Login
  • US Flag 
10:56PM EDT


 

Airport Tracker/Info


-or-


 

Live Flight TrackerFlight Track Log ✈ RXA4892 ✈ 13-May-2013 ✈ YMIA / MQL - YBHI / BHQ

Flight Track Log - Related Links

Times and Time Zones

All times are in EDT time to prevent confusion due to time zone crossing. See the RXA4892 flight status page for this flight to view local times or setup timezone preferences in your user account.

Time Position Orientation Groundspeed Altitude Reporting Facility
EDT Latitude Longitude Course Direction KTS MPH feet Rate Location/Type
04:19AM -34.1052 142.0399 360° North 14,000  Level Aus ATC (Calculated)
04:19AM -34.1052 142.0399 347° North 14,000  Level Aus ATC (Calculated)
04:20AM -34.0399 142.0221 347° North 14,000  Level Aus ATC (Calculated)
04:22AM -33.9471 141.9969 347° North  Level FlightAware Approximate
04:22AM -33.9095 141.9866 347° North 14,000  Level Aus ATC (Calculated)
04:24AM -33.8166 141.9615 347° North  Level FlightAware Approximate
04:25AM -33.7636 141.9471 347° North  Level FlightAware Approximate
04:26AM -33.7105 141.9327 347° North  Level FlightAware Approximate
04:26AM -33.6485 141.9160 167° South 14,000  Level Aus ATC (Calculated)
04:27AM -33.6574 141.9184 347° North  Level FlightAware Approximate
04:28AM -33.5857 141.8990 347° North  Level FlightAware Approximate
04:29AM -33.5326 141.8847 347° North  Level FlightAware Approximate
04:30AM -33.4796 141.8705 347° North  Level FlightAware Approximate
04:30AM -33.4528 141.8632 360° North 14,000  Level Aus ATC (Calculated)
04:30AM -33.4528 141.8632 347° North 14,000  Level Aus ATC (Calculated)
04:32AM -33.3855 141.8452 347° North  Level FlightAware Approximate
04:33AM -33.3325 141.8310 347° North  Level FlightAware Approximate
04:33AM -33.2570 141.8107 167° South 14,000  Level Aus ATC (Calculated)
04:34AM -33.2794 141.8168 347° North  Level FlightAware Approximate
04:35AM -33.1897 141.7928 347° North  Level FlightAware Approximate
04:35AM -33.1917 141.7933 360° North 1,400  Level Aus ATC (Calculated)
04:35AM -33.1917 141.7933 40° Northeast 1,400  Level Aus ATC (Calculated)
04:37AM -33.1159 141.8690 40° Northeast  Level FlightAware Approximate
04:38AM -33.1576 141.8273 220° Southwest  Level FlightAware Approximate
04:39AM -33.1993 141.7856 220° Southwest  Level FlightAware Approximate
04:40AM -33.1576 141.8273 40° Northeast  Level FlightAware Approximate
04:41AM -33.1725 141.7882 347° North  Level FlightAware Approximate
04:42AM -33.1194 141.7741 347° North  Level FlightAware Approximate
04:43AM -33.0664 141.7600 347° North  Level FlightAware Approximate
04:44AM -33.0133 141.7458 347° North  Level FlightAware Approximate
04:45AM -32.9602 141.7318 347° North  Level FlightAware Approximate
04:45AM -32.4475 141.5965 348° North 1,400  Level Aus ATC (Calculated)
04:47AM -32.3643 141.5747 348° North  Level FlightAware Approximate
04:48AM -32.3111 141.5608 348° North  Level FlightAware Approximate
04:49AM -32.2580 141.5470 348° North  Level FlightAware Approximate
04:49AM -32.1496 141.5187 360° North 1,400  Level Aus ATC (Calculated)
04:50AM -32.1496 141.5187 348° North 1,400  Level Aus ATC (Calculated)
04:51AM -32.0965 141.5049 348° North  Level FlightAware Approximate
04:52AM -32.0434 141.4911 348° North  Level FlightAware Approximate
04:53AM -32.0014 141.4717 348° North  Level Estimated
04:54AM -32.0014 141.4717 84° East  Level Estimated
04:55AM -32.0014 141.4717 84° East  Level Estimated
04:56AM -32.0014 141.4717 84° East  Level Estimated